Time;durP1;ratioP1;P1;durP2;ratioP2;P2;SDS_P1;SDS_P2;PMS_P1;PMS_P2;Temp;Humidity;BMP_temperature;BMP_pressure;BME280_temperature;BME280_humidity;BME280_pressure;Samples;Min_cycle;Max_cycle;Signal;HPM_P1;HPM_P2
2023/05/08 00:02:08;;;;;;;0.30;0.22;;;;;;;24.41;39.49;101939.00;5018495;27;97231;-75
2023/05/08 00:04:35;;;;;;;0.22;0.20;;;;;;;24.40;39.24;101938.13;5018396;27;96799;-75
2023/05/08 00:07:01;;;;;;;0.55;0.30;;;;;;;24.40;39.39;101938.13;5041908;27;100774;-75
2023/05/08 00:09:28;;;;;;;0.43;0.30;;;;;;;24.42;39.41;101939.84;5013026;27;96858;-76
2023/05/08 00:11:54;;;;;;;0.40;0.30;;;;;;;24.42;39.49;101939.84;5016272;28;96694;-75
2023/05/08 00:14:21;;;;;;;0.32;0.30;;;;;;;24.41;39.31;101936.25;5017777;28;97623;-75
2023/05/08 00:16:47;;;;;;;0.30;0.30;;;;;;;24.40;39.49;101931.78;5017139;28;96658;-75
2023/05/08 00:19:14;;;;;;;0.40;0.30;;;;;;;24.39;39.86;101930.94;5019588;28;97127;-76
2023/05/08 00:21:41;;;;;;;0.20;0.20;;;;;;;24.40;39.86;101934.53;5016729;28;96943;-75
2023/05/08 00:24:07;;;;;;;0.20;0.20;;;;;;;24.40;39.38;101926.31;5014939;28;98162;-75
2023/05/08 00:26:34;;;;;;;0.63;0.22;;;;;;;24.40;39.60;101931.78;5019692;27;98603;-75
2023/05/08 00:29:00;;;;;;;0.40;0.20;;;;;;;24.39;39.51;101928.19;5021468;28;97701;-75
2023/05/08 00:31:27;;;;;;;0.25;0.20;;;;;;;24.39;39.25;101927.34;5020435;28;96787;-75
2023/05/08 00:33:53;;;;;;;0.57;0.30;;;;;;;24.39;39.25;101919.94;5015103;28;100317;-75
2023/05/08 00:36:20;;;;;;;0.90;0.40;;;;;;;24.40;39.33;101923.56;5013823;28;98562;-75
2023/05/08 00:38:47;;;;;;;0.40;0.30;;;;;;;24.39;39.42;101928.19;5017547;28;97191;-75
2023/05/08 00:41:13;;;;;;;0.50;0.50;;;;;;;24.39;39.43;101932.81;5019906;27;96851;-75
2023/05/08 00:43:40;;;;;;;0.50;0.32;;;;;;;24.39;39.67;101936.44;5025929;28;99333;-75
2023/05/08 00:46:08;;;;;;;0.30;0.20;;;;;;;24.39;39.32;101933.69;5019176;28;97623;-75
2023/05/08 00:48:35;;;;;;;0.30;0.20;;;;;;;24.39;39.38;101936.44;5021446;28;96978;-75
2023/05/08 00:51:05;;;;;;;0.57;0.32;;;;;;;24.39;39.44;101930.06;5018936;28;97260;-75
2023/05/08 00:53:34;;;;;;;0.30;0.20;;;;;;;24.39;39.39;101928.19;5017575;28;96848;-75
2023/05/08 00:56:01;;;;;;;0.50;0.32;;;;;;;24.38;39.67;101929.22;5016973;27;97380;-75
2023/05/08 00:58:30;;;;;;;0.20;0.20;;;;;;;24.39;39.46;101927.34;5015710;28;96772;-75
2023/05/08 01:00:56;;;;;;;0.30;0.28;;;;;;;24.39;39.54;101919.09;4999416;28;97462;-76
2023/05/08 01:03:24;;;;;;;0.30;0.22;;;;;;;24.38;39.21;101926.47;5020661;28;99265;-75
2023/05/08 01:05:51;;;;;;;0.50;0.35;;;;;;;24.38;39.40;101920.97;5018349;28;98166;-75
2023/05/08 01:08:17;;;;;;;0.22;0.20;;;;;;;24.37;39.32;101926.66;5013911;28;96846;-76
2023/05/08 01:11:11;;;;;;;0.38;0.20;;;;;;;24.39;39.50;101924.59;5012364;28;96974;-75
2023/05/08 01:13:50;;;;;;;0.43;0.32;;;;;;;24.36;39.53;101924.94;5015499;27;98628;-75
2023/05/08 01:16:28;;;;;;;0.25;0.20;;;;;;;24.36;39.83;101922.19;5013013;27;98275;-75
2023/05/08 01:19:09;;;;;;;1.02;0.35;;;;;;;24.36;39.70;101924.94;5014775;27;96911;-75
2023/05/08 01:21:55;;;;;;;0.50;0.22;;;;;;;24.36;39.40;101927.69;5020815;27;97046;-76
2023/05/08 01:24:57;;;;;;;0.20;0.20;;;;;;;24.36;39.62;101925.78;5011147;27;97065;-75
2023/05/08 01:27:50;;;;;;;0.55;0.30;;;;;;;24.34;39.41;101921.50;5025551;27;96849;-75
2023/05/08 01:30:46;;;;;;;0.40;0.30;;;;;;;24.34;39.52;101919.63;5009077;27;96814;-76
2023/05/08 01:33:22;;;;;;;0.32;0.25;;;;;;;24.33;39.46;101928.03;5016693;27;96823;-75
2023/05/08 01:35:55;;;;;;;0.28;0.20;;;;;;;24.32;39.53;101927.16;5024776;27;98160;-76
2023/05/08 01:38:33;;;;;;;0.50;0.40;;;;;;;24.33;39.34;101923.38;5020657;27;98767;-75
2023/05/08 01:41:24;;;;;;;0.52;0.30;;;;;;;24.33;39.81;101928.88;5014646;27;96764;-75
2023/05/08 01:44:00;;;;;;;0.32;0.20;;;;;;;24.33;39.75;101928.88;5013720;27;96816;-76
2023/05/08 01:46:28;;;;;;;0.40;0.30;;;;;;;24.32;39.48;101924.41;5017884;27;99678;-76
2023/05/08 01:49:05;;;;;;;0.32;0.30;;;;;;;24.34;39.50;101935.22;5014713;27;98997;-76
2023/05/08 01:51:49;;;;;;;0.20;0.20;;;;;;;24.33;39.66;101928.03;5013187;27;96733;-75
2023/05/08 01:54:23;;;;;;;0.40;0.30;;;;;;;24.33;39.57;101925.28;5013864;28;96627;-76
2023/05/08 01:56:53;;;;;;;0.30;0.20;;;;;;;24.33;39.88;101930.78;5016456;27;96723;-76
2023/05/08 01:59:22;;;;;;;0.38;0.30;;;;;;;24.33;39.70;101928.03;5009854;27;97463;-75
2023/05/08 02:01:53;;;;;;;0.20;0.20;;;;;;;24.33;39.47;101928.88;5021234;27;97114;-75
2023/05/08 02:04:21;;;;;;;0.45;0.30;;;;;;;24.33;39.55;101936.25;5010912;27;96988;-76
2023/05/08 02:06:50;;;;;;;0.40;0.20;;;;;;;24.33;39.27;101941.75;5019240;27;97164;-76
2023/05/08 02:09:20;;;;;;;0.30;0.28;;;;;;;24.34;39.42;101943.47;5015238;27;96848;-76
2023/05/08 02:11:49;;;;;;;0.40;0.30;;;;;;;24.34;39.51;101935.22;5013144;27;96750;-76
2023/05/08 02:14:19;;;;;;;0.35;0.20;;;;;;;24.33;39.50;101934.38;5012276;27;97069;-76
2023/05/08 02:16:49;;;;;;;0.43;0.28;;;;;;;24.33;39.41;101941.75;5011347;27;96825;-75
2023/05/08 02:19:19;;;;;;;0.47;0.30;;;;;;;24.34;39.74;101946.22;5014885;27;98712;-76
2023/05/08 02:21:47;;;;;;;0.20;0.20;;;;;;;24.33;39.66;101945.34;5010559;27;96944;-75
2023/05/08 02:24:15;;;;;;;0.43;0.30;;;;;;;24.33;39.51;101947.25;5019064;27;96900;-75
2023/05/08 02:26:45;;;;;;;0.40;0.30;;;;;;;24.34;39.70;101946.22;5021904;27;96821;-75
2023/05/08 02:29:12;;;;;;;0.80;0.30;;;;;;;24.33;39.66;101944.50;5014276;27;97434;-76
2023/05/08 02:31:40;;;;;;;0.25;0.25;;;;;;;24.33;39.49;101944.50;5014214;27;96666;-76
2023/05/08 02:34:08;;;;;;;0.40;0.40;;;;;;;24.33;39.60;101947.25;5019000;27;99375;-76
2023/05/08 02:36:37;;;;;;;0.32;0.30;;;;;;;24.33;39.48;101950.84;5019159;27;97737;-76
2023/05/08 02:39:04;;;;;;;0.30;0.30;;;;;;;24.33;39.24;101937.13;5018640;27;97869;-76
2023/05/08 02:41:32;;;;;;;0.30;0.30;;;;;;;24.33;39.57;101944.50;5015166;27;96811;-75
2023/05/08 02:43:59;;;;;;;0.60;0.35;;;;;;;24.32;39.67;101940.91;5011716;27;97055;-75
2023/05/08 02:46:47;;;;;;;0.28;0.22;;;;;;;24.34;39.51;101948.97;5010090;27;99755;-76
2023/05/08 02:50:02;;;;;;;0.30;0.30;;;;;;;24.32;39.53;101942.78;5001088;27;98186;-76
2023/05/08 02:52:59;;;;;;;0.43;0.30;;;;;;;24.30;39.76;101945.69;5018565;27;96782;-75
2023/05/08 02:55:41;;;;;;;0.55;0.30;;;;;;;24.29;39.55;101932.16;5013561;27;96763;-76
2023/05/08 02:58:43;;;;;;;0.35;0.30;;;;;;;24.29;39.62;101932.16;5012808;27;97273;-76
2023/05/08 03:01:28;;;;;;;0.80;0.38;;;;;;;24.26;39.57;101927.81;5008519;27;97827;-75
2023/05/08 03:04:07;;;;;;;0.40;0.30;;;;;;;24.27;39.55;101932.31;4992835;27;97100;-76
2023/05/08 03:06:41;;;;;;;0.55;0.30;;;;;;;24.28;39.81;101934.03;5019774;27;96842;-76
2023/05/08 03:09:17;;;;;;;0.22;0.20;;;;;;;24.28;39.74;101928.53;5015003;27;100428;-75
2023/05/08 03:11:47;;;;;;;0.40;0.30;;;;;;;24.28;39.55;101936.78;4994901;27;99206;-76
2023/05/08 03:14:20;;;;;;;0.75;0.40;;;;;;;24.28;39.53;101931.28;5018353;27;96747;-75
2023/05/08 03:16:51;;;;;;;0.25;0.25;;;;;;;24.29;39.50;101940.38;5013760;27;96758;-76
2023/05/08 03:19:32;;;;;;;0.20;0.20;;;;;;;24.29;39.54;101932.16;5020717;27;99270;-75
2023/05/08 03:22:00;;;;;;;0.47;0.30;;;;;;;24.28;39.51;101941.41;5010588;27;96764;-75
2023/05/08 03:24:30;;;;;;;0.43;0.30;;;;;;;24.28;39.61;101933.19;5015779;27;96861;-76
2023/05/08 03:26:58;;;;;;;0.38;0.30;;;;;;;24.29;39.79;101937.63;5017369;27;96898;-75
2023/05/08 03:29:26;;;;;;;0.40;0.30;;;;;;;24.29;39.75;101934.88;4999821;27;99372;-75
2023/05/08 03:31:55;;;;;;;0.22;0.20;;;;;;;24.28;39.62;101939.53;5017024;27;97537;-75
2023/05/08 03:34:22;;;;;;;0.50;0.30;;;;;;;24.29;39.49;101934.88;5022697;27;97276;-76
2023/05/08 03:36:50;;;;;;;0.43;0.30;;;;;;;24.30;39.68;101944.84;5019386;27;96892;-75
2023/05/08 03:39:17;;;;;;;0.32;0.20;;;;;;;24.29;39.37;101943.97;5015010;27;100242;-75
2023/05/08 03:41:44;;;;;;;1.58;0.20;;;;;;;24.29;39.47;101938.50;5018908;27;98992;-76
2023/05/08 03:44:13;;;;;;;0.32;0.30;;;;;;;24.29;39.49;101943.97;5022364;27;96661;-75
2023/05/08 03:46:41;;;;;;;0.30;0.20;;;;;;;24.30;39.79;101936.59;5016000;27;96833;-75
2023/05/08 03:49:08;;;;;;;0.30;0.30;;;;;;;24.30;39.59;101947.59;5017813;27;97209;-75
2023/05/08 03:51:41;;;;;;;0.52;0.40;;;;;;;24.30;39.49;101939.34;5028277;27;100223;-76
2023/05/08 03:54:07;;;;;;;0.20;0.20;;;;;;;24.29;39.84;101932.16;5018240;27;96907;-75
2023/05/08 03:56:34;;;;;;;0.15;0.15;;;;;;;24.29;39.86;101934.88;5015073;27;96960;-76
2023/05/08 03:59:13;;;;;;;0.52;0.30;;;;;;;24.29;39.83;101934.88;5021623;27;99580;-75
2023/05/08 04:01:53;;;;;;;0.35;0.28;;;;;;;24.30;39.77;101939.34;5004342;27;99924;-76
2023/05/08 04:04:20;;;;;;;0.38;0.30;;;;;;;24.28;39.67;101930.44;5012447;27;97568;-76
2023/05/08 04:06:52;;;;;;;0.40;0.30;;;;;;;24.28;39.51;101936.78;5018406;27;97028;-76
2023/05/08 04:09:36;;;;;;;0.20;0.20;;;;;;;24.28;39.49;101928.53;5034897;27;97761;-76
2023/05/08 04:12:23;;;;;;;0.30;0.30;;;;;;;24.27;39.65;101926.81;5023491;27;99552;-75
2023/05/08 04:15:00;;;;;;;0.30;0.30;;;;;;;24.28;39.63;101930.44;5007157;27;96623;-76
2023/05/08 04:17:38;;;;;;;0.30;0.30;;;;;;;24.27;39.60;101925.97;5017580;27;97140;-75
2023/05/08 04:20:11;;;;;;;0.60;0.30;;;;;;;24.27;39.55;101931.47;5013104;27;96855;-75
2023/05/08 04:22:39;;;;;;;0.35;0.35;;;;;;;24.26;39.60;101929.72;5016554;27;98968;-76
2023/05/08 04:25:07;;;;;;;0.50;0.28;;;;;;;24.27;39.68;101925.97;5021659;27;97324;-75
2023/05/08 04:27:35;;;;;;;0.30;0.28;;;;;;;24.27;39.76;101934.19;5018283;27;96807;-76
2023/05/08 04:30:02;;;;;;;0.40;0.30;;;;;;;24.27;39.46;101940.56;5019423;27;98107;-76
2023/05/08 04:32:30;;;;;;;0.30;0.22;;;;;;;24.26;39.68;101947.03;5023902;27;98044;-75
2023/05/08 04:34:57;;;;;;;0.50;0.30;;;;;;;24.27;39.76;101946.03;5025537;27;96699;-75
2023/05/08 04:37:27;;;;;;;0.32;0.30;;;;;;;24.28;39.50;101952.41;5019511;27;96849;-76
2023/05/08 04:39:56;;;;;;;0.60;0.43;;;;;;;24.27;39.44;101947.94;5015586;27;99800;-76
2023/05/08 04:42:24;;;;;;;0.30;0.30;;;;;;;24.27;39.46;101951.53;5015379;27;100146;-76
2023/05/08 04:44:54;;;;;;;0.50;0.40;;;;;;;24.27;39.43;101950.69;5002429;27;96724;-76
2023/05/08 04:47:20;;;;;;;0.40;0.30;;;;;;;24.27;39.66;101947.94;5019367;27;96784;-76
2023/05/08 04:49:47;;;;;;;0.30;0.30;;;;;;;24.26;39.75;101944.28;5004109;27;97064;-76
2023/05/08 04:52:13;;;;;;;0.40;0.38;;;;;;;24.27;39.65;101953.41;5016449;27;98423;-76
2023/05/08 04:54:40;;;;;;;0.43;0.35;;;;;;;24.28;39.54;101957.88;5014087;27;96672;-76
2023/05/08 04:57:07;;;;;;;0.30;0.30;;;;;;;24.27;39.54;101956.16;5016060;27;97146;-76
2023/05/08 04:59:33;;;;;;;0.50;0.30;;;;;;;24.28;39.73;101963.38;5016428;27;96809;-76
2023/05/08 05:02:01;;;;;;;0.30;0.30;;;;;;;24.27;39.56;101962.50;5013404;27;98019;-76
2023/05/08 05:04:29;;;;;;;0.40;0.32;;;;;;;24.27;39.86;101964.41;5005138;27;96848;-76
2023/05/08 05:06:56;;;;;;;0.32;0.30;;;;;;;24.27;39.75;101967.16;5018789;27;96793;-76
2023/05/08 05:09:24;;;;;;;0.30;0.30;;;;;;;24.28;39.65;101968.88;4991984;27;98669;-76
2023/05/08 05:11:50;;;;;;;0.60;0.43;;;;;;;24.27;39.55;101967.16;5019754;27;96814;-76
2023/05/08 05:14:18;;;;;;;0.40;0.40;;;;;;;24.27;39.61;101973.50;4999346;27;96856;-76
2023/05/08 05:16:44;;;;;;;0.28;0.22;;;;;;;24.28;39.72;101974.34;5019607;27;97059;-76
2023/05/08 05:19:11;;;;;;;0.30;0.30;;;;;;;24.28;39.65;101971.59;4998112;27;100822;-75
2023/05/08 05:21:38;;;;;;;0.98;0.30;;;;;;;24.27;39.46;101979.00;5015050;27;100505;-76
2023/05/08 05:24:05;;;;;;;0.30;0.20;;;;;;;24.28;39.59;101985.34;5001907;27;97079;-76
2023/05/08 05:26:32;;;;;;;0.20;0.20;;;;;;;24.28;39.61;101988.09;5022852;27;97169;-76
2023/05/08 05:29:01;;;;;;;0.88;0.40;;;;;;;24.27;39.56;101979.00;5015560;27;98743;-76
2023/05/08 05:31:29;;;;;;;0.73;0.40;;;;;;;24.28;39.32;101979.84;5017522;27;99264;-76
2023/05/08 05:33:56;;;;;;;0.47;0.40;;;;;;;24.28;39.56;101985.34;4993202;27;96580;-75
2023/05/08 05:36:22;;;;;;;0.40;0.32;;;;;;;24.29;39.51;101981.56;5011568;27;96916;-76
2023/05/08 05:38:49;;;;;;;0.40;0.38;;;;;;;24.28;39.74;101985.34;5016739;27;98440;-76
2023/05/08 05:41:16;;;;;;;0.40;0.30;;;;;;;24.28;39.66;101985.34;5012205;27;98669;-76
2023/05/08 05:43:42;;;;;;;0.30;0.30;;;;;;;24.28;39.48;101991.69;5022574;27;96718;-76
2023/05/08 05:46:09;;;;;;;0.40;0.30;;;;;;;24.29;39.50;101995.28;5014349;27;96763;-76
2023/05/08 05:48:38;;;;;;;0.35;0.30;;;;;;;24.30;39.44;101994.25;5007969;27;98804;-76
2023/05/08 05:51:07;;;;;;;0.30;0.30;;;;;;;24.28;39.57;101988.94;5015529;27;98845;-76
2023/05/08 05:53:33;;;;;;;0.30;0.22;;;;;;;24.29;40.09;101998.03;5011006;27;97003;-76
2023/05/08 05:56:00;;;;;;;0.38;0.30;;;;;;;24.29;39.46;102000.78;5016928;27;97103;-75
2023/05/08 05:58:28;;;;;;;0.50;0.50;;;;;;;24.29;39.86;102003.53;5011357;27;99732;-75
2023/05/08 06:00:57;;;;;;;0.38;0.30;;;;;;;24.29;39.80;102006.28;5008465;27;98884;-75
2023/05/08 06:03:23;;;;;;;0.40;0.40;;;;;;;24.29;39.30;102015.38;5018330;27;96786;-76
2023/05/08 06:05:51;;;;;;;0.47;0.28;;;;;;;24.29;39.17;102018.09;5013156;27;97614;-76
2023/05/08 06:08:18;;;;;;;0.65;0.40;;;;;;;24.30;39.68;102024.47;5020120;27;100764;-76
2023/05/08 06:10:44;;;;;;;0.52;0.40;;;;;;;24.30;39.72;102024.47;5017150;27;99322;-76
2023/05/08 06:13:11;;;;;;;0.80;0.50;;;;;;;24.30;39.29;102022.56;5021696;27;96896;-76
2023/05/08 06:15:39;;;;;;;0.40;0.35;;;;;;;24.31;39.30;102023.44;5015891;27;97050;-76
2023/05/08 06:18:05;;;;;;;0.30;0.30;;;;;;;24.30;39.40;102019.81;5010266;27;99665;-76
2023/05/08 06:20:32;;;;;;;0.45;0.30;;;;;;;24.30;39.35;102018.97;5009810;27;96770;-76
2023/05/08 06:22:59;;;;;;;0.35;0.30;;;;;;;24.31;39.43;102017.94;5012895;27;97200;-76
2023/05/08 06:25:29;;;;;;;0.70;0.40;;;;;;;24.30;39.48;102019.81;5016145;27;97188;-76
2023/05/08 06:27:56;;;;;;;0.50;0.40;;;;;;;24.30;39.49;102017.09;5016652;27;98394;-76
2023/05/08 06:30:23;;;;;;;0.73;0.50;;;;;;;24.32;39.49;102019.66;5012767;27;101070;-77
2023/05/08 06:32:49;;;;;;;0.43;0.30;;;;;;;24.31;39.58;102009.69;5015478;27;96883;-77
2023/05/08 06:35:19;;;;;;;0.50;0.40;;;;;;;24.31;39.70;102012.44;5016540;27;96642;-77
2023/05/08 06:37:45;;;;;;;0.50;0.40;;;;;;;24.31;39.59;102006.97;5015270;27;97559;-77
2023/05/08 06:40:12;;;;;;;0.35;0.30;;;;;;;24.32;39.49;102008.66;5018181;27;97094;-77
2023/05/08 06:42:40;;;;;;;0.50;0.40;;;;;;;24.31;39.46;102007.81;5003023;27;96773;-77
2023/05/08 06:45:08;;;;;;;0.57;0.50;;;;;;;24.32;39.66;102009.53;5017231;27;97598;-77
2023/05/08 06:47:35;;;;;;;0.40;0.38;;;;;;;24.31;39.59;102005.06;5014421;27;97278;-77
2023/05/08 06:50:02;;;;;;;0.50;0.30;;;;;;;24.31;39.55;102013.31;5010365;27;96848;-77
2023/05/08 06:52:28;;;;;;;0.60;0.50;;;;;;;24.32;39.79;102019.66;5012810;27;96493;-77
2023/05/08 06:54:55;;;;;;;0.30;0.30;;;;;;;24.32;39.96;102015.03;5011554;27;96897;-77
2023/05/08 06:57:25;;;;;;;0.47;0.40;;;;;;;24.33;39.59;102018.63;5020321;27;96734;-77
2023/05/08 06:59:52;;;;;;;0.60;0.40;;;;;;;24.32;39.54;102014.16;5011523;27;99937;-77
2023/05/08 07:02:19;;;;;;;0.50;0.40;;;;;;;24.32;39.52;102026.00;4999859;27;96800;-77
2023/05/08 07:04:46;;;;;;;0.35;0.35;;;;;;;24.32;39.35;102014.16;5008452;27;97104;-77
2023/05/08 07:07:13;;;;;;;0.63;0.40;;;;;;;24.33;39.97;102024.13;5014744;28;97651;-77
2023/05/08 07:09:40;;;;;;;0.60;0.40;;;;;;;24.32;39.35;102026.00;5021662;27;96670;-77
2023/05/08 07:12:07;;;;;;;0.43;0.40;;;;;;;24.32;39.35;102019.66;5014571;27;96741;-77
2023/05/08 07:14:34;;;;;;;0.30;0.30;;;;;;;24.33;39.25;102026.88;5011496;28;96930;-77
2023/05/08 07:17:06;;;;;;;0.40;0.30;;;;;;;24.32;39.48;102026.00;5015679;27;96928;-77
2023/05/08 07:19:37;;;;;;;0.50;0.40;;;;;;;24.33;39.46;102033.22;5019150;27;97454;-77
2023/05/08 07:22:04;;;;;;;0.50;0.40;;;;;;;24.32;39.49;102034.25;5016993;27;97126;-77
2023/05/08 07:24:31;;;;;;;0.80;0.50;;;;;;;24.32;39.60;102027.91;5009270;28;96838;-77
2023/05/08 07:26:58;;;;;;;0.60;0.40;;;;;;;24.33;39.47;102037.84;5017993;27;98277;-77
2023/05/08 07:29:25;;;;;;;0.30;0.28;;;;;;;24.33;39.58;102026.88;5018115;27;96886;-77
2023/05/08 07:31:52;;;;;;;0.63;0.50;;;;;;;24.32;39.42;102031.50;5014024;27;96629;-77
2023/05/08 07:34:19;;;;;;;0.70;0.57;;;;;;;24.33;39.77;102029.59;5017840;27;96928;-77
2023/05/08 07:36:45;;;;;;;0.50;0.50;;;;;;;24.33;39.47;102032.34;5014881;27;97093;-76
2023/05/08 07:39:12;;;;;;;0.60;0.40;;;;;;;24.33;39.45;102021.38;5012075;28;97369;-77
2023/05/08 07:41:39;;;;;;;0.50;0.50;;;;;;;24.32;39.25;102028.75;4996008;28;96870;-77
2023/05/08 07:44:06;;;;;;;0.70;0.60;;;;;;;24.33;39.67;102027.72;5015866;28;97294;-77
2023/05/08 07:46:33;;;;;;;0.43;0.40;;;;;;;24.33;39.50;102033.22;5011724;28;96854;-77
2023/05/08 07:49:00;;;;;;;0.50;0.40;;;;;;;24.33;39.67;102026.88;5009068;28;96634;-77
2023/05/08 07:51:27;;;;;;;0.73;0.50;;;;;;;24.34;39.52;102036.81;5010114;28;96825;-77
2023/05/08 07:53:53;;;;;;;0.60;0.45;;;;;;;24.34;39.47;102034.06;5021775;28;96732;-76
2023/05/08 07:56:23;;;;;;;0.60;0.55;;;;;;;24.34;39.32;102040.41;5021830;28;99565;-76
2023/05/08 07:58:50;;;;;;;0.40;0.40;;;;;;;24.34;39.67;102045.06;5021366;28;96979;-77
2023/05/08 08:01:17;;;;;;;0.75;0.60;;;;;;;24.33;39.50;102041.44;5027183;28;96871;-77
2023/05/08 08:03:44;;;;;;;0.50;0.50;;;;;;;24.33;39.58;102041.44;5028439;28;96905;-77
2023/05/08 08:06:12;;;;;;;0.50;0.50;;;;;;;24.33;39.60;102049.69;5025878;28;96893;-76
2023/05/08 08:08:39;;;;;;;0.52;0.50;;;;;;;24.34;39.56;102034.06;5024485;28;98241;-76
2023/05/08 08:11:06;;;;;;;0.70;0.60;;;;;;;24.34;39.60;102045.91;5010412;28;97199;-76
2023/05/08 08:13:32;;;;;;;0.60;0.60;;;;;;;24.33;39.63;102032.34;5008280;28;96837;-76
2023/05/08 08:16:00;;;;;;;0.52;0.40;;;;;;;24.34;39.39;102037.69;5010318;28;96745;-77
2023/05/08 08:18:27;;;;;;;0.60;0.60;;;;;;;24.34;39.47;102034.06;5011445;28;100551;-77
2023/05/08 08:20:54;;;;;;;0.75;0.73;;;;;;;24.33;39.65;102038.69;5023717;28;96996;-77
2023/05/08 08:23:20;;;;;;;0.50;0.50;;;;;;;24.34;39.53;102028.59;5023094;28;96732;-76
2023/05/08 08:25:47;;;;;;;0.63;0.50;;;;;;;24.34;39.56;102032.19;5012361;28;97075;-77
2023/05/08 08:28:13;;;;;;;0.70;0.50;;;;;;;24.34;39.57;102037.69;5024733;28;97933;-77
2023/05/08 08:30:40;;;;;;;0.63;0.45;;;;;;;24.35;39.34;102030.28;5020139;28;96875;-77
2023/05/08 08:33:07;;;;;;;0.50;0.40;;;;;;;24.35;39.70;102025.66;5025165;27;96832;-77
2023/05/08 08:35:33;;;;;;;0.40;0.40;;;;;;;24.36;39.62;102019.13;5019216;27;98344;-76
2023/05/08 08:38:00;;;;;;;0.45;0.45;;;;;;;24.36;39.39;102016.41;5028596;27;96668;-76
2023/05/08 08:40:27;;;;;;;0.85;0.50;;;;;;;24.37;39.41;102014.50;5020334;28;96836;-77
2023/05/08 08:42:54;;;;;;;0.60;0.50;;;;;;;24.38;39.39;102013.47;5010313;28;96741;-77
2023/05/08 08:45:20;;;;;;;0.70;0.50;;;;;;;24.39;39.39;102016.06;5014415;28;97996;-77
2023/05/08 08:47:51;;;;;;;0.68;0.50;;;;;;;24.39;39.49;102015.19;5016837;28;97195;-76
2023/05/08 08:50:18;;;;;;;0.73;0.50;;;;;;;24.39;39.38;102012.44;5022860;28;96803;-77
2023/05/08 08:53:04;;;;;;;0.77;0.52;;;;;;;24.40;39.61;102020.50;5018299;28;97319;-77
2023/05/08 08:55:33;;;;;;;0.50;0.50;;;;;;;24.38;39.61;102016.22;5018358;28;97687;-77
2023/05/08 08:58:24;;;;;;;0.68;0.50;;;;;;;24.39;39.37;102018.81;5024259;28;99141;-77
2023/05/08 09:00:53;;;;;;;0.65;0.55;;;;;;;24.37;39.55;102009.03;5013819;28;96806;-77
2023/05/08 09:03:20;;;;;;;0.73;0.70;;;;;;;24.38;39.33;102011.59;5015746;28;96971;-77
2023/05/08 09:05:48;;;;;;;0.60;0.60;;;;;;;24.39;39.44;102021.56;5021140;27;99005;-77
2023/05/08 09:08:14;;;;;;;0.77;0.43;;;;;;;24.40;39.32;102016.91;5013139;28;96864;-77
2023/05/08 09:10:41;;;;;;;1.17;0.60;;;;;;;24.42;39.48;102022.22;5000100;27;97792;-78
2023/05/08 09:13:07;;;;;;;0.70;0.60;;;;;;;24.42;39.53;102016.75;5016648;27;96844;-77
2023/05/08 09:15:34;;;;;;;0.50;0.50;;;;;;;24.42;39.44;102008.50;5020793;28;97541;-77
2023/05/08 09:18:01;;;;;;;0.63;0.50;;;;;;;24.42;39.60;102012.09;5028761;27;97257;-77
2023/05/08 09:20:28;;;;;;;0.85;0.60;;;;;;;24.43;39.31;102016.56;5025092;28;96886;-77
2023/05/08 09:22:56;;;;;;;0.60;0.60;;;;;;;24.43;39.46;102023.94;5017043;28;97250;-77
2023/05/08 09:25:23;;;;;;;0.63;0.60;;;;;;;24.43;39.43;102024.81;5019499;27;97006;-77
2023/05/08 09:27:49;;;;;;;0.60;0.50;;;;;;;24.44;39.49;102017.44;5018275;27;97884;-77
2023/05/08 09:30:16;;;;;;;0.70;0.50;;;;;;;24.44;39.36;102012.78;5014611;27;98617;-77
2023/05/08 09:32:44;;;;;;;0.50;0.50;;;;;;;24.44;39.41;102015.53;5020163;27;98566;-77
2023/05/08 09:35:11;;;;;;;0.82;0.60;;;;;;;24.44;39.42;102007.31;5019201;28;99706;-77
2023/05/08 09:37:41;;;;;;;0.80;0.70;;;;;;;24.45;39.55;102013.66;5016570;27;97204;-77
2023/05/08 09:40:15;;;;;;;0.60;0.60;;;;;;;24.46;39.27;102009.88;5020019;27;99633;-77
2023/05/08 09:42:41;;;;;;;1.13;0.50;;;;;;;24.46;39.52;102012.63;5021646;28;97189;-77
2023/05/08 09:45:10;;;;;;;0.50;0.50;;;;;;;24.45;39.41;102011.75;5027717;27;97610;-77
2023/05/08 09:47:38;;;;;;;0.80;0.70;;;;;;;24.45;39.51;102020.00;5013818;27;97562;-77
2023/05/08 09:50:09;;;;;;;0.73;0.60;;;;;;;24.46;39.31;102021.72;5019004;27;96806;-77
2023/05/08 09:52:37;;;;;;;0.60;0.50;;;;;;;24.46;39.52;102021.72;5017431;27;98941;-77
2023/05/08 09:55:13;;;;;;;0.70;0.60;;;;;;;24.47;39.39;102026.19;5018453;27;97174;-77
2023/05/08 09:57:55;;;;;;;0.70;0.60;;;;;;;24.48;39.65;102033.41;5018360;27;97894;-77
2023/05/08 10:00:26;;;;;;;0.65;0.63;;;;;;;24.46;39.65;102024.47;5013517;27;96855;-77
2023/05/08 10:02:59;;;;;;;0.60;0.50;;;;;;;24.46;39.39;102029.97;5012136;28;96801;-77
2023/05/08 10:05:31;;;;;;;0.60;0.60;;;;;;;24.48;39.51;102032.53;5014225;28;97612;-77
2023/05/08 10:08:16;;;;;;;0.70;0.60;;;;;;;24.49;39.50;102026.00;5014098;27;98834;-79
2023/05/08 10:10:43;;;;;;;0.60;0.60;;;;;;;24.46;39.35;102029.97;5023076;27;97200;-77
2023/05/08 10:13:09;;;;;;;0.77;0.70;;;;;;;24.47;39.27;102026.19;5015730;27;96865;-77
2023/05/08 10:15:40;;;;;;;0.70;0.70;;;;;;;24.48;39.54;102027.91;5014838;27;96654;-77
2023/05/08 10:18:08;;;;;;;0.70;0.70;;;;;;;24.48;39.48;102033.41;5017639;28;96959;-77
2023/05/08 10:20:41;;;;;;;0.75;0.70;;;;;;;24.49;39.52;102026.00;5014090;28;96777;-77
2023/05/08 10:23:13;;;;;;;0.68;0.55;;;;;;;24.50;39.54;102030.47;5009177;27;96791;-76
2023/05/08 10:25:45;;;;;;;0.70;0.70;;;;;;;24.50;39.61;102030.47;5019550;28;97225;-76
2023/05/08 10:28:19;;;;;;;0.82;0.70;;;;;;;24.50;39.62;102027.72;5008182;28;98327;-76
2023/05/08 10:30:50;;;;;;;0.80;0.70;;;;;;;24.50;39.39;102028.59;5012950;27;100753;-77
2023/05/08 10:33:20;;;;;;;1.05;0.95;;;;;;;24.51;39.51;102029.44;5015299;28;96867;-76
2023/05/08 10:35:47;;;;;;;0.70;0.60;;;;;;;24.50;39.39;102023.09;5025161;28;98025;-77
2023/05/08 10:38:15;;;;;;;0.70;0.60;;;;;;;24.50;39.29;102017.59;5018428;27;97747;-77
2023/05/08 10:40:42;;;;;;;0.70;0.60;;;;;;;24.52;39.48;102018.28;4994361;28;97130;-77
2023/05/08 10:43:10;;;;;;;1.13;0.70;;;;;;;24.52;39.37;102003.69;5021975;27;96900;-77
2023/05/08 10:45:37;;;;;;;1.10;0.80;;;;;;;24.52;39.34;102010.03;5019641;27;96944;-77
2023/05/08 10:48:20;;;;;;;0.70;0.60;;;;;;;24.53;39.54;102008.19;5023581;27;96833;-76
2023/05/08 10:50:49;;;;;;;0.68;0.60;;;;;;;24.52;39.39;102004.56;5012830;28;97903;-76
2023/05/08 10:53:42;;;;;;;0.60;0.50;;;;;;;24.54;39.49;102004.41;5016041;28;96929;-77
2023/05/08 10:56:09;;;;;;;1.00;0.80;;;;;;;24.53;39.34;102006.31;5020525;28;97683;-76
2023/05/08 10:58:38;;;;;;;0.75;0.73;;;;;;;24.53;39.45;102003.56;5013522;28;97091;-76
2023/05/08 11:01:07;;;;;;;0.90;0.80;;;;;;;24.54;39.65;102008.03;5010864;28;96988;-76
2023/05/08 11:03:45;;;;;;;0.77;0.77;;;;;;;24.54;39.43;102010.75;5011251;27;96938;-76
2023/05/08 11:06:12;;;;;;;0.60;0.60;;;;;;;24.54;39.63;102007.16;5010329;28;97846;-76
2023/05/08 11:08:49;;;;;;;0.90;0.80;;;;;;;24.55;39.79;102003.38;5016803;27;98705;-76
2023/05/08 11:11:23;;;;;;;0.80;0.68;;;;;;;24.55;39.47;102000.63;5021302;27;96824;-76
2023/05/08 11:13:54;;;;;;;0.80;0.75;;;;;;;24.55;39.38;101997.88;5020918;28;96818;-77
2023/05/08 11:16:53;;;;;;;0.82;0.75;;;;;;;24.55;39.30;101995.16;5025623;27;96824;-76
2023/05/08 11:19:22;;;;;;;0.80;0.70;;;;;;;24.55;39.56;101992.41;5008638;28;97697;-76
2023/05/08 11:22:27;;;;;;;0.70;0.63;;;;;;;24.56;39.32;101989.47;5008054;28;96570;-76
2023/05/08 11:24:56;;;;;;;0.77;0.60;;;;;;;24.55;39.61;101990.50;5022506;27;97309;-76
2023/05/08 11:27:35;;;;;;;0.95;0.70;;;;;;;24.55;39.38;101987.75;5017394;27;97442;-77
2023/05/08 11:30:23;;;;;;;0.80;0.75;;;;;;;24.56;39.58;101989.47;5016457;28;97625;-77
2023/05/08 11:33:02;;;;;;;0.80;0.80;;;;;;;24.56;39.56;101984.00;5011006;28;96968;-77
2023/05/08 11:35:53;;;;;;;0.70;0.70;;;;;;;24.56;39.60;101977.63;5013586;28;96848;-77
2023/05/08 11:38:23;;;;;;;0.68;0.68;;;;;;;24.57;39.42;101977.47;5015923;27;97000;-76
2023/05/08 11:40:58;;;;;;;0.88;0.88;;;;;;;24.56;39.55;101975.75;5023022;27;98262;-76